sensor_id;sensor_type;location;lat;lon;timestamp;P1;durP1;ratioP1;P2;durP2;ratioP2
19492;SDS011;9887;54.366;10.958;2022-07-22T00:01:32;13.50;;;4.20;;
19492;SDS011;9887;54.366;10.958;2022-07-22T00:04:00;10.80;;;4.40;;
19492;SDS011;9887;54.366;10.958;2022-07-22T00:06:28;11.00;;;4.13;;
19492;SDS011;9887;54.366;10.958;2022-07-22T00:08:56;10.75;;;4.05;;
19492;SDS011;9887;54.366;10.958;2022-07-22T00:11:25;10.50;;;4.30;;
19492;SDS011;9887;54.366;10.958;2022-07-22T00:13:53;9.35;;;3.63;;
19492;SDS011;9887;54.366;10.958;2022-07-22T00:16:21;10.23;;;4.32;;
19492;SDS011;9887;54.366;10.958;2022-07-22T00:18:51;13.02;;;4.20;;
19492;SDS011;9887;54.366;10.958;2022-07-22T00:21:19;12.38;;;4.38;;
19492;SDS011;9887;54.366;10.958;2022-07-22T00:23:47;12.70;;;3.92;;
19492;SDS011;9887;54.366;10.958;2022-07-22T00:26:15;16.63;;;4.18;;
19492;SDS011;9887;54.366;10.958;2022-07-22T00:28:44;12.57;;;4.18;;
19492;SDS011;9887;54.366;10.958;2022-07-22T00:31:12;11.40;;;3.65;;
19492;SDS011;9887;54.366;10.958;2022-07-22T00:33:40;8.25;;;3.88;;
19492;SDS011;9887;54.366;10.958;2022-07-22T00:36:10;8.80;;;2.97;;
19492;SDS011;9887;54.366;10.958;2022-07-22T00:38:38;12.20;;;3.45;;
19492;SDS011;9887;54.366;10.958;2022-07-22T00:41:06;8.90;;;3.10;;
19492;SDS011;9887;54.366;10.958;2022-07-22T00:43:50;11.13;;;3.08;;
19492;SDS011;9887;54.366;10.958;2022-07-22T00:46:21;14.27;;;3.20;;
19492;SDS011;9887;54.366;10.958;2022-07-22T00:48:51;11.40;;;3.10;;
19492;SDS011;9887;54.366;10.958;2022-07-22T00:51:22;9.10;;;2.85;;
19492;SDS011;9887;54.366;10.958;2022-07-22T00:53:51;14.02;;;3.00;;
19492;SDS011;9887;54.366;10.958;2022-07-22T00:56:20;14.63;;;2.63;;
19492;SDS011;9887;54.366;10.958;2022-07-22T00:58:49;13.60;;;3.33;;
19492;SDS011;9887;54.366;10.958;2022-07-22T01:01:18;10.55;;;2.50;;
19492;SDS011;9887;54.366;10.958;2022-07-22T01:03:47;7.65;;;2.40;;
19492;SDS011;9887;54.366;10.958;2022-07-22T01:06:19;11.63;;;2.42;;
19492;SDS011;9887;54.366;10.958;2022-07-22T01:08:48;6.32;;;2.10;;
19492;SDS011;9887;54.366;10.958;2022-07-22T01:11:18;14.75;;;3.08;;
19492;SDS011;9887;54.366;10.958;2022-07-22T01:13:47;14.93;;;2.53;;
19492;SDS011;9887;54.366;10.958;2022-07-22T01:16:16;12.52;;;2.40;;
19492;SDS011;9887;54.366;10.958;2022-07-22T01:18:45;10.48;;;2.03;;
19492;SDS011;9887;54.366;10.958;2022-07-22T01:21:15;7.80;;;2.47;;
19492;SDS011;9887;54.366;10.958;2022-07-22T01:23:44;12.93;;;2.40;;
19492;SDS011;9887;54.366;10.958;2022-07-22T01:26:12;7.88;;;2.00;;
19492;SDS011;9887;54.366;10.958;2022-07-22T01:28:41;10.98;;;2.30;;
19492;SDS011;9887;54.366;10.958;2022-07-22T01:31:09;10.77;;;2.92;;
19492;SDS011;9887;54.366;10.958;2022-07-22T01:33:38;9.13;;;2.70;;
19492;SDS011;9887;54.366;10.958;2022-07-22T01:36:06;9.85;;;1.92;;
19492;SDS011;9887;54.366;10.958;2022-07-22T01:38:36;10.85;;;2.35;;
19492;SDS011;9887;54.366;10.958;2022-07-22T01:41:04;10.00;;;2.60;;
19492;SDS011;9887;54.366;10.958;2022-07-22T01:43:32;13.98;;;2.05;;
19492;SDS011;9887;54.366;10.958;2022-07-22T01:46:00;7.72;;;2.33;;
19492;SDS011;9887;54.366;10.958;2022-07-22T01:48:29;10.20;;;3.08;;
19492;SDS011;9887;54.366;10.958;2022-07-22T01:50:57;11.93;;;2.58;;
19492;SDS011;9887;54.366;10.958;2022-07-22T01:53:25;11.05;;;2.00;;
19492;SDS011;9887;54.366;10.958;2022-07-22T01:55:54;8.70;;;2.35;;
19492;SDS011;9887;54.366;10.958;2022-07-22T01:58:22;7.40;;;1.85;;
19492;SDS011;9887;54.366;10.958;2022-07-22T02:00:52;10.80;;;2.53;;
19492;SDS011;9887;54.366;10.958;2022-07-22T02:03:21;12.90;;;2.75;;
19492;SDS011;9887;54.366;10.958;2022-07-22T02:05:49;6.95;;;1.85;;
19492;SDS011;9887;54.366;10.958;2022-07-22T02:08:22;8.70;;;1.95;;
19492;SDS011;9887;54.366;10.958;2022-07-22T02:11:12;6.60;;;1.90;;
19492;SDS011;9887;54.366;10.958;2022-07-22T02:13:53;9.85;;;2.30;;
19492;SDS011;9887;54.366;10.958;2022-07-22T02:16:21;11.73;;;2.70;;
19492;SDS011;9887;54.366;10.958;2022-07-22T02:18:50;11.50;;;2.67;;
19492;SDS011;9887;54.366;10.958;2022-07-22T02:21:19;11.73;;;2.40;;
19492;SDS011;9887;54.366;10.958;2022-07-22T02:23:50;11.07;;;2.33;;
19492;SDS011;9887;54.366;10.958;2022-07-22T02:26:19;7.75;;;2.47;;
19492;SDS011;9887;54.366;10.958;2022-07-22T02:28:47;7.22;;;2.67;;
19492;SDS011;9887;54.366;10.958;2022-07-22T02:31:15;11.85;;;2.55;;
19492;SDS011;9887;54.366;10.958;2022-07-22T02:33:43;11.32;;;2.92;;
19492;SDS011;9887;54.366;10.958;2022-07-22T02:36:11;13.70;;;2.33;;
19492;SDS011;9887;54.366;10.958;2022-07-22T02:38:40;11.25;;;2.05;;
19492;SDS011;9887;54.366;10.958;2022-07-22T02:41:08;12.65;;;2.78;;
19492;SDS011;9887;54.366;10.958;2022-07-22T02:43:43;16.05;;;2.88;;
19492;SDS011;9887;54.366;10.958;2022-07-22T02:46:11;9.13;;;2.17;;
19492;SDS011;9887;54.366;10.958;2022-07-22T02:48:39;9.85;;;2.90;;
19492;SDS011;9887;54.366;10.958;2022-07-22T02:51:10;8.88;;;2.35;;
19492;SDS011;9887;54.366;10.958;2022-07-22T02:53:38;5.50;;;2.03;;
19492;SDS011;9887;54.366;10.958;2022-07-22T02:56:06;13.43;;;2.95;;
19492;SDS011;9887;54.366;10.958;2022-07-22T02:58:35;6.63;;;2.03;;
19492;SDS011;9887;54.366;10.958;2022-07-22T03:01:04;6.25;;;2.08;;
19492;SDS011;9887;54.366;10.958;2022-07-22T03:03:42;9.93;;;2.40;;
19492;SDS011;9887;54.366;10.958;2022-07-22T03:06:10;10.88;;;3.15;;
19492;SDS011;9887;54.366;10.958;2022-07-22T03:08:43;9.13;;;2.25;;
19492;SDS011;9887;54.366;10.958;2022-07-22T03:11:13;12.23;;;2.65;;
19492;SDS011;9887;54.366;10.958;2022-07-22T03:13:41;16.25;;;2.63;;
19492;SDS011;9887;54.366;10.958;2022-07-22T03:16:11;12.48;;;2.60;;
19492;SDS011;9887;54.366;10.958;2022-07-22T03:18:40;7.70;;;2.20;;
19492;SDS011;9887;54.366;10.958;2022-07-22T03:21:08;10.65;;;2.30;;
19492;SDS011;9887;54.366;10.958;2022-07-22T03:23:36;10.68;;;1.90;;
19492;SDS011;9887;54.366;10.958;2022-07-22T03:26:04;6.93;;;2.15;;
19492;SDS011;9887;54.366;10.958;2022-07-22T03:28:32;5.60;;;1.65;;
19492;SDS011;9887;54.366;10.958;2022-07-22T03:31:00;11.38;;;1.98;;
19492;SDS011;9887;54.366;10.958;2022-07-22T03:33:29;8.30;;;2.13;;
19492;SDS011;9887;54.366;10.958;2022-07-22T03:35:58;9.68;;;2.35;;
19492;SDS011;9887;54.366;10.958;2022-07-22T03:38:26;10.30;;;2.85;;
19492;SDS011;9887;54.366;10.958;2022-07-22T03:40:55;6.80;;;2.22;;
19492;SDS011;9887;54.366;10.958;2022-07-22T03:43:23;12.23;;;2.80;;
19492;SDS011;9887;54.366;10.958;2022-07-22T03:45:51;8.70;;;2.47;;
19492;SDS011;9887;54.366;10.958;2022-07-22T03:48:19;9.68;;;2.30;;
19492;SDS011;9887;54.366;10.958;2022-07-22T03:50:48;7.82;;;2.80;;
19492;SDS011;9887;54.366;10.958;2022-07-22T03:53:17;8.82;;;2.40;;
19492;SDS011;9887;54.366;10.958;2022-07-22T03:55:46;10.80;;;2.70;;
19492;SDS011;9887;54.366;10.958;2022-07-22T03:58:15;9.15;;;2.20;;
19492;SDS011;9887;54.366;10.958;2022-07-22T04:00:44;12.52;;;2.95;;
19492;SDS011;9887;54.366;10.958;2022-07-22T04:03:12;11.02;;;2.80;;
19492;SDS011;9887;54.366;10.958;2022-07-22T04:06:02;12.57;;;2.60;;
19492;SDS011;9887;54.366;10.958;2022-07-22T04:08:38;12.77;;;2.85;;
19492;SDS011;9887;54.366;10.958;2022-07-22T04:11:07;11.13;;;2.75;;
19492;SDS011;9887;54.366;10.958;2022-07-22T04:13:35;9.88;;;2.72;;
19492;SDS011;9887;54.366;10.958;2022-07-22T04:16:03;6.55;;;2.30;;
19492;SDS011;9887;54.366;10.958;2022-07-22T04:18:32;10.40;;;2.33;;
19492;SDS011;9887;54.366;10.958;2022-07-22T04:21:01;9.70;;;2.47;;
19492;SDS011;9887;54.366;10.958;2022-07-22T04:23:33;14.85;;;2.67;;
19492;SDS011;9887;54.366;10.958;2022-07-22T04:26:15;8.57;;;2.45;;
19492;SDS011;9887;54.366;10.958;2022-07-22T04:28:43;11.35;;;3.03;;
19492;SDS011;9887;54.366;10.958;2022-07-22T04:31:11;16.45;;;3.75;;
19492;SDS011;9887;54.366;10.958;2022-07-22T04:33:41;10.48;;;2.70;;
19492;SDS011;9887;54.366;10.958;2022-07-22T04:36:10;11.15;;;2.55;;
19492;SDS011;9887;54.366;10.958;2022-07-22T04:38:39;10.73;;;2.38;;
19492;SDS011;9887;54.366;10.958;2022-07-22T04:41:09;10.90;;;2.60;;
19492;SDS011;9887;54.366;10.958;2022-07-22T04:43:37;12.43;;;2.30;;
19492;SDS011;9887;54.366;10.958;2022-07-22T04:46:06;12.65;;;2.50;;
19492;SDS011;9887;54.366;10.958;2022-07-22T04:48:38;11.15;;;2.50;;
19492;SDS011;9887;54.366;10.958;2022-07-22T04:51:07;13.25;;;2.60;;
19492;SDS011;9887;54.366;10.958;2022-07-22T04:53:37;13.25;;;2.83;;
19492;SDS011;9887;54.366;10.958;2022-07-22T04:56:17;11.18;;;2.15;;
19492;SDS011;9887;54.366;10.958;2022-07-22T04:58:45;12.07;;;3.42;;
19492;SDS011;9887;54.366;10.958;2022-07-22T05:01:14;11.80;;;3.10;;
19492;SDS011;9887;54.366;10.958;2022-07-22T05:03:45;10.23;;;2.35;;
19492;SDS011;9887;54.366;10.958;2022-07-22T05:06:13;8.23;;;2.70;;
19492;SDS011;9887;54.366;10.958;2022-07-22T05:08:44;7.35;;;2.30;;
19492;SDS011;9887;54.366;10.958;2022-07-22T05:11:12;7.07;;;2.53;;
19492;SDS011;9887;54.366;10.958;2022-07-22T05:13:40;17.73;;;2.58;;
19492;SDS011;9887;54.366;10.958;2022-07-22T05:16:08;10.40;;;2.30;;
19492;SDS011;9887;54.366;10.958;2022-07-22T05:18:38;13.60;;;2.85;;
19492;SDS011;9887;54.366;10.958;2022-07-22T05:21:09;9.70;;;2.90;;
19492;SDS011;9887;54.366;10.958;2022-07-22T05:23:37;10.88;;;2.50;;
19492;SDS011;9887;54.366;10.958;2022-07-22T05:26:07;14.20;;;4.57;;
19492;SDS011;9887;54.366;10.958;2022-07-22T05:28:36;8.50;;;2.45;;
19492;SDS011;9887;54.366;10.958;2022-07-22T05:31:04;10.70;;;3.17;;
19492;SDS011;9887;54.366;10.958;2022-07-22T05:33:33;12.65;;;3.03;;
19492;SDS011;9887;54.366;10.958;2022-07-22T05:36:07;9.75;;;2.90;;
19492;SDS011;9887;54.366;10.958;2022-07-22T05:38:42;11.32;;;2.58;;
19492;SDS011;9887;54.366;10.958;2022-07-22T05:41:11;9.57;;;2.85;;
19492;SDS011;9887;54.366;10.958;2022-07-22T05:43:39;11.75;;;2.97;;
19492;SDS011;9887;54.366;10.958;2022-07-22T05:46:08;15.27;;;3.10;;
19492;SDS011;9887;54.366;10.958;2022-07-22T05:48:36;14.75;;;2.90;;
19492;SDS011;9887;54.366;10.958;2022-07-22T05:51:04;13.77;;;2.63;;
19492;SDS011;9887;54.366;10.958;2022-07-22T05:53:38;8.20;;;2.72;;
19492;SDS011;9887;54.366;10.958;2022-07-22T05:56:06;14.02;;;2.90;;
19492;SDS011;9887;54.366;10.958;2022-07-22T05:58:38;10.48;;;2.58;;
19492;SDS011;9887;54.366;10.958;2022-07-22T06:01:07;16.50;;;2.90;;
19492;SDS011;9887;54.366;10.958;2022-07-22T06:03:36;11.82;;;2.60;;
19492;SDS011;9887;54.366;10.958;2022-07-22T06:06:04;7.68;;;2.70;;
19492;SDS011;9887;54.366;10.958;2022-07-22T06:08:35;18.48;;;3.13;;
19492;SDS011;9887;54.366;10.958;2022-07-22T06:11:03;14.65;;;2.92;;
19492;SDS011;9887;54.366;10.958;2022-07-22T06:13:32;13.50;;;2.58;;
19492;SDS011;9887;54.366;10.958;2022-07-22T06:16:02;14.07;;;2.60;;
19492;SDS011;9887;54.366;10.958;2022-07-22T06:18:31;9.95;;;3.00;;
19492;SDS011;9887;54.366;10.958;2022-07-22T06:20:59;12.55;;;3.20;;
19492;SDS011;9887;54.366;10.958;2022-07-22T06:23:27;15.13;;;3.05;;
19492;SDS011;9887;54.366;10.958;2022-07-22T06:25:55;11.70;;;2.63;;
19492;SDS011;9887;54.366;10.958;2022-07-22T06:28:28;14.32;;;3.58;;
19492;SDS011;9887;54.366;10.958;2022-07-22T06:30:56;20.40;;;4.18;;
19492;SDS011;9887;54.366;10.958;2022-07-22T06:33:27;10.15;;;2.83;;
19492;SDS011;9887;54.366;10.958;2022-07-22T06:35:59;17.30;;;2.72;;
19492;SDS011;9887;54.366;10.958;2022-07-22T06:38:28;14.98;;;3.63;;
19492;SDS011;9887;54.366;10.958;2022-07-22T06:41:15;15.77;;;3.08;;
19492;SDS011;9887;54.366;10.958;2022-07-22T06:44:12;12.18;;;2.72;;
19492;SDS011;9887;54.366;10.958;2022-07-22T06:47:02;12.25;;;2.72;;
19492;SDS011;9887;54.366;10.958;2022-07-22T06:49:32;11.38;;;2.75;;
19492;SDS011;9887;54.366;10.958;2022-07-22T06:52:00;15.43;;;2.60;;
19492;SDS011;9887;54.366;10.958;2022-07-22T06:54:28;20.20;;;3.10;;
19492;SDS011;9887;54.366;10.958;2022-07-22T06:56:58;14.55;;;3.00;;
19492;SDS011;9887;54.366;10.958;2022-07-22T06:59:30;10.18;;;2.67;;
19492;SDS011;9887;54.366;10.958;2022-07-22T07:02:00;11.10;;;3.25;;
19492;SDS011;9887;54.366;10.958;2022-07-22T07:04:37;9.45;;;2.17;;
19492;SDS011;9887;54.366;10.958;2022-07-22T07:07:06;12.88;;;2.53;;
19492;SDS011;9887;54.366;10.958;2022-07-22T07:09:58;11.55;;;2.67;;
19492;SDS011;9887;54.366;10.958;2022-07-22T07:12:49;11.25;;;2.80;;
19492;SDS011;9887;54.366;10.958;2022-07-22T07:15:23;13.77;;;2.72;;
19492;SDS011;9887;54.366;10.958;2022-07-22T07:18:00;15.70;;;3.10;;
19492;SDS011;9887;54.366;10.958;2022-07-22T07:20:29;13.35;;;2.35;;
19492;SDS011;9887;54.366;10.958;2022-07-22T07:22:59;13.25;;;2.13;;
19492;SDS011;9887;54.366;10.958;2022-07-22T07:25:30;10.82;;;2.97;;
19492;SDS011;9887;54.366;10.958;2022-07-22T07:27:59;11.05;;;2.90;;
19492;SDS011;9887;54.366;10.958;2022-07-22T07:30:52;10.70;;;2.33;;
19492;SDS011;9887;54.366;10.958;2022-07-22T07:33:20;12.18;;;2.35;;
19492;SDS011;9887;54.366;10.958;2022-07-22T07:35:51;14.88;;;2.40;;
19492;SDS011;9887;54.366;10.958;2022-07-22T07:38:33;12.40;;;2.60;;
19492;SDS011;9887;54.366;10.958;2022-07-22T07:41:04;11.65;;;3.10;;
19492;SDS011;9887;54.366;10.958;2022-07-22T07:43:32;10.98;;;3.00;;
19492;SDS011;9887;54.366;10.958;2022-07-22T07:46:01;12.55;;;2.75;;
19492;SDS011;9887;54.366;10.958;2022-07-22T07:48:29;10.27;;;1.98;;
19492;SDS011;9887;54.366;10.958;2022-07-22T07:50:58;16.38;;;2.45;;
19492;SDS011;9887;54.366;10.958;2022-07-22T07:53:26;9.63;;;2.17;;
19492;SDS011;9887;54.366;10.958;2022-07-22T07:55:54;14.50;;;2.47;;
19492;SDS011;9887;54.366;10.958;2022-07-22T07:58:22;12.85;;;2.58;;
19492;SDS011;9887;54.366;10.958;2022-07-22T08:00:51;10.45;;;2.40;;
19492;SDS011;9887;54.366;10.958;2022-07-22T08:03:20;7.60;;;2.60;;
19492;SDS011;9887;54.366;10.958;2022-07-22T08:05:48;12.30;;;3.03;;
19492;SDS011;9887;54.366;10.958;2022-07-22T08:08:20;17.15;;;3.17;;
19492;SDS011;9887;54.366;10.958;2022-07-22T08:10:49;12.80;;;2.42;;
19492;SDS011;9887;54.366;10.958;2022-07-22T08:13:47;7.57;;;2.42;;
19492;SDS011;9887;54.366;10.958;2022-07-22T08:16:47;16.05;;;2.40;;
19492;SDS011;9887;54.366;10.958;2022-07-22T08:19:15;16.20;;;2.80;;
19492;SDS011;9887;54.366;10.958;2022-07-22T08:21:43;10.35;;;2.58;;
19492;SDS011;9887;54.366;10.958;2022-07-22T08:24:21;11.48;;;2.92;;
19492;SDS011;9887;54.366;10.958;2022-07-22T08:26:49;12.93;;;2.10;;
19492;SDS011;9887;54.366;10.958;2022-07-22T08:29:17;13.77;;;1.98;;
19492;SDS011;9887;54.366;10.958;2022-07-22T08:31:45;9.88;;;1.98;;
19492;SDS011;9887;54.366;10.958;2022-07-22T08:34:15;10.60;;;2.55;;
19492;SDS011;9887;54.366;10.958;2022-07-22T08:36:44;10.88;;;2.22;;
19492;SDS011;9887;54.366;10.958;2022-07-22T08:39:12;12.10;;;2.25;;
19492;SDS011;9887;54.366;10.958;2022-07-22T08:41:50;15.07;;;3.97;;
19492;SDS011;9887;54.366;10.958;2022-07-22T08:44:18;10.02;;;2.05;;
19492;SDS011;9887;54.366;10.958;2022-07-22T08:46:47;14.70;;;2.22;;
19492;SDS011;9887;54.366;10.958;2022-07-22T08:49:18;12.95;;;2.65;;
19492;SDS011;9887;54.366;10.958;2022-07-22T08:52:05;14.38;;;2.63;;
19492;SDS011;9887;54.366;10.958;2022-07-22T08:54:44;12.25;;;2.30;;
19492;SDS011;9887;54.366;10.958;2022-07-22T08:57:15;11.48;;;1.85;;
19492;SDS011;9887;54.366;10.958;2022-07-22T08:59:51;11.35;;;2.50;;
19492;SDS011;9887;54.366;10.958;2022-07-22T09:02:20;6.22;;;1.83;;
19492;SDS011;9887;54.366;10.958;2022-07-22T09:04:49;7.80;;;1.88;;
19492;SDS011;9887;54.366;10.958;2022-07-22T09:07:24;13.68;;;2.40;;
19492;SDS011;9887;54.366;10.958;2022-07-22T09:09:54;11.77;;;4.18;;
19492;SDS011;9887;54.366;10.958;2022-07-22T09:12:51;11.13;;;2.80;;
19492;SDS011;9887;54.366;10.958;2022-07-22T09:15:48;12.02;;;2.97;;
19492;SDS011;9887;54.366;10.958;2022-07-22T09:18:44;12.40;;;1.95;;
19492;SDS011;9887;54.366;10.958;2022-07-22T09:21:31;14.93;;;2.38;;
19492;SDS011;9887;54.366;10.958;2022-07-22T09:24:25;9.73;;;1.92;;
19492;SDS011;9887;54.366;10.958;2022-07-22T09:26:57;14.15;;;2.00;;
19492;SDS011;9887;54.366;10.958;2022-07-22T09:29:31;12.15;;;2.97;;
19492;SDS011;9887;54.366;10.958;2022-07-22T09:32:13;11.10;;;2.08;;
19492;SDS011;9887;54.366;10.958;2022-07-22T09:35:08;9.38;;;1.98;;
19492;SDS011;9887;54.366;10.958;2022-07-22T09:37:47;11.77;;;2.05;;
19492;SDS011;9887;54.366;10.958;2022-07-22T09:40:21;16.23;;;2.33;;
19492;SDS011;9887;54.366;10.958;2022-07-22T09:42:51;8.35;;;1.52;;
19492;SDS011;9887;54.366;10.958;2022-07-22T09:45:22;8.15;;;2.00;;
19492;SDS011;9887;54.366;10.958;2022-07-22T09:47:53;9.70;;;1.58;;
19492;SDS011;9887;54.366;10.958;2022-07-22T09:50:33;9.90;;;2.13;;
19492;SDS011;9887;54.366;10.958;2022-07-22T09:53:18;10.13;;;2.47;;
19492;SDS011;9887;54.366;10.958;2022-07-22T09:55:57;10.20;;;2.08;;
19492;SDS011;9887;54.366;10.958;2022-07-22T09:58:26;9.48;;;2.60;;
19492;SDS011;9887;54.366;10.958;2022-07-22T10:00:57;9.82;;;2.28;;
19492;SDS011;9887;54.366;10.958;2022-07-22T10:03:28;12.00;;;2.20;;
19492;SDS011;9887;54.366;10.958;2022-07-22T10:06:00;8.98;;;2.08;;
19492;SDS011;9887;54.366;10.958;2022-07-22T10:08:30;13.20;;;2.33;;
19492;SDS011;9887;54.366;10.958;2022-07-22T10:11:00;16.10;;;2.20;;
19492;SDS011;9887;54.366;10.958;2022-07-22T10:13:30;11.32;;;2.03;;
19492;SDS011;9887;54.366;10.958;2022-07-22T10:16:05;7.88;;;1.60;;
19492;SDS011;9887;54.366;10.958;2022-07-22T10:18:34;10.98;;;1.70;;
19492;SDS011;9887;54.366;10.958;2022-07-22T10:21:03;4.90;;;1.48;;
19492;SDS011;9887;54.366;10.958;2022-07-22T10:23:33;5.18;;;1.50;;
19492;SDS011;9887;54.366;10.958;2022-07-22T10:26:03;10.95;;;1.52;;
19492;SDS011;9887;54.366;10.958;2022-07-22T10:28:32;9.30;;;2.55;;
19492;SDS011;9887;54.366;10.958;2022-07-22T10:31:17;7.38;;;2.20;;
19492;SDS011;9887;54.366;10.958;2022-07-22T10:33:49;8.50;;;1.85;;
19492;SDS011;9887;54.366;10.958;2022-07-22T10:36:32;7.47;;;1.90;;
19492;SDS011;9887;54.366;10.958;2022-07-22T10:39:02;8.70;;;1.67;;
19492;SDS011;9887;54.366;10.958;2022-07-22T10:41:35;7.30;;;1.80;;
19492;SDS011;9887;54.366;10.958;2022-07-22T10:44:04;8.23;;;1.52;;
19492;SDS011;9887;54.366;10.958;2022-07-22T10:49:19;7.80;;;1.30;;
19492;SDS011;9887;54.366;10.958;2022-07-22T10:57:43;12.23;;;1.50;;
19492;SDS011;9887;54.366;10.958;2022-07-22T11:00:11;5.18;;;1.42;;
19492;SDS011;9887;54.366;10.958;2022-07-22T11:02:40;5.07;;;1.20;;
19492;SDS011;9887;54.366;10.958;2022-07-22T11:05:09;8.30;;;1.90;;
19492;SDS011;9887;54.366;10.958;2022-07-22T11:07:40;6.97;;;1.50;;
19492;SDS011;9887;54.366;10.958;2022-07-22T11:10:09;10.25;;;1.50;;
19492;SDS011;9887;54.366;10.958;2022-07-22T11:12:44;4.05;;;1.25;;
19492;SDS011;9887;54.366;10.958;2022-07-22T11:15:12;7.35;;;1.42;;
19492;SDS011;9887;54.366;10.958;2022-07-22T11:17:42;7.90;;;1.90;;
19492;SDS011;9887;54.366;10.958;2022-07-22T11:20:11;6.00;;;1.50;;
19492;SDS011;9887;54.366;10.958;2022-07-22T11:22:40;8.32;;;2.03;;
19492;SDS011;9887;54.366;10.958;2022-07-22T11:25:09;6.50;;;1.63;;
19492;SDS011;9887;54.366;10.958;2022-07-22T11:27:39;5.20;;;1.40;;
19492;SDS011;9887;54.366;10.958;2022-07-22T11:30:15;5.50;;;1.30;;
19492;SDS011;9887;54.366;10.958;2022-07-22T11:32:44;9.32;;;1.58;;
19492;SDS011;9887;54.366;10.958;2022-07-22T11:35:13;6.38;;;1.58;;
19492;SDS011;9887;54.366;10.958;2022-07-22T11:37:41;11.23;;;2.03;;
19492;SDS011;9887;54.366;10.958;2022-07-22T11:40:09;6.15;;;1.10;;
19492;SDS011;9887;54.366;10.958;2022-07-22T11:42:38;7.15;;;1.50;;
19492;SDS011;9887;54.366;10.958;2022-07-22T11:45:06;5.68;;;1.30;;
19492;SDS011;9887;54.366;10.958;2022-07-22T11:47:35;7.90;;;1.27;;
19492;SDS011;9887;54.366;10.958;2022-07-22T11:50:05;5.65;;;1.02;;
19492;SDS011;9887;54.366;10.958;2022-07-22T11:52:34;8.50;;;1.50;;
19492;SDS011;9887;54.366;10.958;2022-07-22T11:55:02;7.00;;;1.88;;
19492;SDS011;9887;54.366;10.958;2022-07-22T11:57:46;4.75;;;1.02;;
19492;SDS011;9887;54.366;10.958;2022-07-22T12:00:14;7.05;;;1.48;;
19492;SDS011;9887;54.366;10.958;2022-07-22T12:02:45;8.07;;;1.05;;
19492;SDS011;9887;54.366;10.958;2022-07-22T12:05:14;5.20;;;1.58;;
19492;SDS011;9887;54.366;10.958;2022-07-22T12:07:59;7.60;;;1.05;;
19492;SDS011;9887;54.366;10.958;2022-07-22T12:10:28;4.60;;;1.38;;
19492;SDS011;9887;54.366;10.958;2022-07-22T12:12:56;4.25;;;1.10;;
19492;SDS011;9887;54.366;10.958;2022-07-22T12:15:24;10.32;;;1.67;;
19492;SDS011;9887;54.366;10.958;2022-07-22T12:18:15;7.63;;;1.20;;
19492;SDS011;9887;54.366;10.958;2022-07-22T12:20:47;7.85;;;1.38;;
19492;SDS011;9887;54.366;10.958;2022-07-22T12:23:20;10.32;;;1.40;;
19492;SDS011;9887;54.366;10.958;2022-07-22T12:25:49;4.15;;;0.95;;
19492;SDS011;9887;54.366;10.958;2022-07-22T12:28:21;5.72;;;0.98;;
19492;SDS011;9887;54.366;10.958;2022-07-22T12:30:49;5.30;;;1.50;;
19492;SDS011;9887;54.366;10.958;2022-07-22T12:33:19;7.70;;;1.45;;
19492;SDS011;9887;54.366;10.958;2022-07-22T12:35:59;9.90;;;1.30;;
19492;SDS011;9887;54.366;10.958;2022-07-22T12:38:29;10.27;;;1.38;;
19492;SDS011;9887;54.366;10.958;2022-07-22T12:43:51;8.68;;;1.30;;
19492;SDS011;9887;54.366;10.958;2022-07-22T12:46:20;5.25;;;1.00;;
19492;SDS011;9887;54.366;10.958;2022-07-22T12:48:48;6.03;;;1.02;;
19492;SDS011;9887;54.366;10.958;2022-07-22T12:51:19;5.38;;;1.02;;
19492;SDS011;9887;54.366;10.958;2022-07-22T12:53:48;6.60;;;1.00;;
19492;SDS011;9887;54.366;10.958;2022-07-22T12:56:15;5.50;;;1.30;;
19492;SDS011;9887;54.366;10.958;2022-07-22T12:58:47;4.28;;;1.10;;
19492;SDS011;9887;54.366;10.958;2022-07-22T13:01:14;3.83;;;1.10;;
19492;SDS011;9887;54.366;10.958;2022-07-22T13:03:43;3.88;;;1.00;;
19492;SDS011;9887;54.366;10.958;2022-07-22T13:06:11;5.22;;;1.17;;
19492;SDS011;9887;54.366;10.958;2022-07-22T13:08:41;5.38;;;1.13;;
19492;SDS011;9887;54.366;10.958;2022-07-22T13:11:12;4.07;;;0.90;;
19492;SDS011;9887;54.366;10.958;2022-07-22T13:13:40;6.30;;;1.35;;
19492;SDS011;9887;54.366;10.958;2022-07-22T13:16:11;7.03;;;1.42;;
19492;SDS011;9887;54.366;10.958;2022-07-22T13:18:40;5.22;;;1.38;;
19492;SDS011;9887;54.366;10.958;2022-07-22T13:21:08;6.63;;;1.08;;
19492;SDS011;9887;54.366;10.958;2022-07-22T13:23:36;5.15;;;1.00;;
19492;SDS011;9887;54.366;10.958;2022-07-22T13:26:05;4.22;;;0.80;;
19492;SDS011;9887;54.366;10.958;2022-07-22T13:28:33;7.63;;;1.55;;
19492;SDS011;9887;54.366;10.958;2022-07-22T13:31:02;3.88;;;1.15;;
19492;SDS011;9887;54.366;10.958;2022-07-22T13:33:30;4.82;;;1.08;;
19492;SDS011;9887;54.366;10.958;2022-07-22T13:35:58;4.53;;;0.70;;
19492;SDS011;9887;54.366;10.958;2022-07-22T13:38:26;4.57;;;1.13;;
19492;SDS011;9887;54.366;10.958;2022-07-22T13:40:54;6.40;;;1.00;;
19492;SDS011;9887;54.366;10.958;2022-07-22T13:43:23;4.85;;;1.08;;
19492;SDS011;9887;54.366;10.958;2022-07-22T13:45:52;5.97;;;1.17;;
19492;SDS011;9887;54.366;10.958;2022-07-22T13:48:21;8.48;;;1.75;;
19492;SDS011;9887;54.366;10.958;2022-07-22T13:50:49;4.45;;;0.82;;
19492;SDS011;9887;54.366;10.958;2022-07-22T13:53:17;5.97;;;1.38;;
19492;SDS011;9887;54.366;10.958;2022-07-22T13:55:45;6.20;;;1.05;;
19492;SDS011;9887;54.366;10.958;2022-07-22T13:58:12;7.20;;;1.38;;
19492;SDS011;9887;54.366;10.958;2022-07-22T14:00:42;5.28;;;0.95;;
19492;SDS011;9887;54.366;10.958;2022-07-22T14:03:10;2.20;;;1.02;;
19492;SDS011;9887;54.366;10.958;2022-07-22T14:05:37;5.95;;;1.17;;
19492;SDS011;9887;54.366;10.958;2022-07-22T14:08:05;3.72;;;1.00;;
19492;SDS011;9887;54.366;10.958;2022-07-22T14:10:33;4.25;;;0.90;;
19492;SDS011;9887;54.366;10.958;2022-07-22T14:13:01;11.45;;;1.27;;
19492;SDS011;9887;54.366;10.958;2022-07-22T14:15:29;8.32;;;1.10;;
19492;SDS011;9887;54.366;10.958;2022-07-22T14:17:59;6.80;;;1.10;;
19492;SDS011;9887;54.366;10.958;2022-07-22T14:20:28;7.13;;;1.30;;
19492;SDS011;9887;54.366;10.958;2022-07-22T14:22:56;5.05;;;0.98;;
19492;SDS011;9887;54.366;10.958;2022-07-22T14:25:24;8.00;;;2.00;;
19492;SDS011;9887;54.366;10.958;2022-07-22T14:27:52;6.50;;;1.55;;
19492;SDS011;9887;54.366;10.958;2022-07-22T14:30:40;4.57;;;1.27;;
19492;SDS011;9887;54.366;10.958;2022-07-22T14:33:09;4.60;;;0.98;;
19492;SDS011;9887;54.366;10.958;2022-07-22T14:35:37;4.95;;;0.95;;
19492;SDS011;9887;54.366;10.958;2022-07-22T14:38:05;5.10;;;0.90;;
19492;SDS011;9887;54.366;10.958;2022-07-22T14:40:33;8.45;;;2.03;;
19492;SDS011;9887;54.366;10.958;2022-07-22T14:43:01;5.07;;;0.93;;
19492;SDS011;9887;54.366;10.958;2022-07-22T14:45:49;8.00;;;1.52;;
19492;SDS011;9887;54.366;10.958;2022-07-22T14:48:18;6.47;;;1.65;;
19492;SDS011;9887;54.366;10.958;2022-07-22T14:50:46;6.03;;;1.10;;
19492;SDS011;9887;54.366;10.958;2022-07-22T14:53:14;3.95;;;1.08;;
19492;SDS011;9887;54.366;10.958;2022-07-22T14:55:43;5.57;;;1.10;;
19492;SDS011;9887;54.366;10.958;2022-07-22T14:58:12;4.50;;;1.13;;
19492;SDS011;9887;54.366;10.958;2022-07-22T15:00:40;4.15;;;1.08;;
19492;SDS011;9887;54.366;10.958;2022-07-22T15:03:08;3.17;;;1.10;;
19492;SDS011;9887;54.366;10.958;2022-07-22T15:05:38;8.85;;;0.98;;
19492;SDS011;9887;54.366;10.958;2022-07-22T15:08:07;5.78;;;1.10;;
19492;SDS011;9887;54.366;10.958;2022-07-22T15:10:36;4.50;;;1.00;;
19492;SDS011;9887;54.366;10.958;2022-07-22T15:13:04;8.63;;;1.00;;
19492;SDS011;9887;54.366;10.958;2022-07-22T15:15:32;3.67;;;0.95;;